Timeline UpdatesTrip UpdatesNews PostsPvt PostsTravel TipsAdmin PostsConv PostsFollowed PostsChat RequestsBlog PostsPNR Posts

Disclaimer
Search
 
 
Tue Sep 2, 2014 19:30:03 ISTHomeTrainsΣChainsAtlasPNRForumGalleryNewsFAQTripsMembersLoginFeedback
No Recent News for this Train
Other Trains in the News **new
Latest...
.
Sat Feb 22, 2014 (10:28PM)
⇐ Return Journey: Train# 58111

58112/Itwari-Tatanagar Jn Passenger

OLD Time-Table. Click here to UPDATE TT
Feb 22 2014 (10:27PM)
Change Departure Station:
Change Arrival Station:
Post a Train Travel TipPost a Train Travel Tip **new
Post a Comment/Question/Picture/VideoPost a Comment/Question/Picture/Video
Pantry/Catering
✕ NO Pantry Car
✕ NO Catering
RSA - Rake Sharing
Rake/Coach Composition
ENG:SLR-1 UR-3 SL-4 UR-3 VP-1 SLR-1; Entry# 189608 ; Author: sunilsagitarius
Loco
WAM-4 TATA Shed; Entry# 545455
News    PNR    Forum    Time-Table    Availability    Fare Chart    Map    Arr/Dep History    Trips    Gallery    ΣChains    X/O    Timeline    
Travel Time: 10h 35m    34 halts    Distance: 273 km    Avg Speed: 25 km/hr
Type: Passenger
Zone: SER/South Eastern
Departs @ 13:30
Platform# ???
SMTWTFS
Ib/IB 
Arrives @ 00:05 +1 night
Platform# 4
SMTWTFS
Tatanagar Junction/TATA 

34 halts. 37 intermediate Stations between Ib and Tatanagar Junction

Show ALL intermediate Stations  

#CodeStation NameX/OArrivesAvgDepartsAvgHaltPFDay#KmSpeedElevZoneAddress
1ITRItwari (3)  -21:30---1-604.121306mSECRNagpur, Maharashtra
2KAVKalamna (2)  21:38-21:40-2m--1-601.246296mSECRNagpur, Maharashtra
3KPKamptee (3)X  21:50-21:52-2m--1-593.628290mSECRMH 441001, Maharashtra
4KNHNKanhan Junction (3)  22:02-22:04-2m--1-588.986288mSECRKanhan, Maharashtra
5SALSalwa (2)X  22:08-22:10-2m--1-583.166289mSECRNagpur, Maharashtra
6CHCRChacher (2)O  22:16-22:18-2m--1-576.563284mSECRNagpur, Maharashtra
7TARTharsa (2)  22:24-22:26-2m--1-570.268292mSECRNagpur, Maharashtra
8RRLRewral (2)  22:31-22:33-2m--1-564.677293mSECRNagpur Distt, Maharashtra
9KHATKhat (2)X  22:40-22:42-2m--1-555.654286mSECRNagpur, Maharashtra
10BRDBhandara Road (2)X  22:53-22:55-2m--1-545.654266mSECRState Highway 252, Maharashtra
11TMRTumsar Road (3)O  23:15-23:20-5m--1-527.788267mSECRBhandara, Maharashtra
12MNUMundikota (2)X  23:27-23:29-2m--1-517.467269mSECRBhandara, Maharashtra
13TROTirora (3)  23:38-23:40-2m--1-507.368282mSECRDist Gondiya, Maharashtra
14KWNKachewani (3)  23:46-23:48-2m--1-500.572303mSECRKachewani, Maharashtra
15GJGangajhari (2)X  23:55-23:57-2m--1-492.230315mSECRBhandara, Maharashtra
16GGondia Junction (7)  00:25-00:35-10m32-478.189316mSECRGondia 441601, Maharashtra
17GDMGudma (2)  00:43-00:45-2m--2-466.273323mSECRGondia, Maharashtra
18AGNAmgaon (2)  00:54-00:56-2m--2-455.280317mSECRGondia, Maharashtra
19SKSSalekasa (2)  01:07-01:09-2m--2-440.553312mSECRRajnandgaon, Chhattisgarh
20DKSDarekasa (2)  01:22-01:24-2m--2-429.066381mSECRRajnandgaon, Chhattisgarh
21BTLBortalao (2)X  01:31-01:33-2m--2-421.353409mSECRRajnandgaon, Chhattisgarh
22PJBPaniajob (2)X  01:43-01:45-2m--2-412.531398mSECRRajnandgaon, Chhattisgarh
23DGGDongargarh (2)  02:00-02:10-10m--2-404.898353mSECRDongargarh, Chhattisgarh
24JTRJatkanhar  02:14-02:16-2m--2-398.266330mSECRRajnandgaon, Chhattisgarh
25MUAMusra  02:22-02:24-2m--2-391.669325mSECRRajnandgaon, Chhattisgarh
26RJNRaj Nandgaon (3)  02:40-02:45-5m--2-373.2100313mSECRRajnandgaon, Chhattisgarh
27MUPMurhipar  02:54-02:56-2m--2-358.316319mSECRRajnandgaon, Chhattisgarh
28DURGDurg Junction (6)X  03:55-04:00-5m--2-342.845299mSECRPh: 91-788-2322059, Chhattisgarh
29BQRBhilai Nagar (2)  04:06-04:07-1m--2-338.366298mSECRBhilai, Chhattisgarh
30BPHBBhilai Power House (3)  04:11-04:13-2m--2-333.856312mSECRBhilai, Chhattisgarh
31BIABhilai (2)  04:18-04:20-2m--2-329.252309mSECRBhilai, Chhattisgarh
32DBECDevbaloda Charoda  04:24-04:26-2m--2-325.823310mSECRBhilai, Chhattisgarh
33KMIKumhari (2)X  04:46-04:48-2m--2-318.251287mSECRKumhari, Chhattisgarh
34SRWNSaraswatinagar (2)  05:00-05:01-1m--2-308.110291mSECRRaipur, Chhattisgarh
35RRaipur Junction (6)X  05:15-05:35-20m--2-305.852297mSECRRaipur, Chhattisgarh
36WRCWRS Colony PH  05:38-05:40-2m--2-303.230286mSECRRaipur, Chhattisgarh
37URKUrkura  05:46-05:48-2m--2-300.273275mSECRRaipur, Chhattisgarh
38MDHMandharX  05:55-05:56-1m--2-291.764281mSECRDonde Kalan, Chhattisgarh
39SLHSiliariX  06:05-06:06-1m--2-282.156280mSECRBanjari Rd, Chhattisgarh
40BKTHBaikunthX  06:15-06:17-2m--2-273.846287mSECRBanjari Rd, Chhattisgarh
41TLDTilda (3)X  06:25-06:27-2m--2-267.680291mSECRBanjari Rd, Chhattisgarh
42HNHathbandhX  06:35-06:37-2m--2-256.984283mSECRRaipur, Chhattisgarh
43BYTBhatapara (4)X  06:48-06:50-2m--2-241.659270mSECRBanjari Road, Chhattisgarh
44NPINipania  07:05-07:06-1m--2-226.955259mSECRNational Highway 200, Chhattisgarh
45DGSDagoriX  07:15-07:16-1m--2-218.692254mSECRCollege Road, Chhattisgarh
46BYLBelha  07:21-07:23-2m--2-211.070269mSECRCollege Road, Chhattisgarh
47CHBTChakarbhathaX  07:28-07:30-2m--2-205.137285mSECRBilaspur, Chhattisgarh
48DPHDadhapara (3)XO  07:35-07:37-2m--2-202.18272mSECRBilaspur, Chhattisgarh
49BSPBilaspur Junction (8)X  08:25-08:40-15m22-195.448271mSECRBilaspur, Chhattisgarh
50GTWGatoraX  08:48-08:50-2m--2-189.057268mSECRBilaspur, Chhattisgarh
51JRMGJairamnagarX  08:58-09:00-2m--2-181.367272mSECRNational Highway 200, Chhattisgarh
52KTSHKotmi Sonar HaltX  09:06-09:08-2m--2-174.664266mSECRKotmisunar, Chhattisgarh
53AKTAkaltara (4)X  09:14-09:16-2m--2-168.266284mSECRDist. Janjgir Champa, Chhattisgarh
54KPNAKapan (1)XO  09:23-09:25-2m12-160.548263mSECRNational Highway 200, Chhattisgarh
55NIANailaX  09:34-09:36-2m--2-153.234273mSECRJanjgir, Chhattisgarh
56CPHChampa Junction (3)X  09:55-10:00-5m--2-142.477264mSECRNational Highway 200 (07819-245767), Chhattisgarh
57SGRDSaragaon Road  10:07-10:08-1m--2-133.498254mSECRNational Highway 200, Chhattisgarh
58BUABaradwarX  10:12-10:14-2m--2-126.961256mSECRJanjgir-Champa, Chhattisgarh
59JDDAJetha  10:21-10:22-1m--2-119.878244mSECRNational Highway 200, Chhattisgarh
60SKTSakti (4)  10:28-10:30-2m--2-112.056237mSECRJanjgir-Champa, Chhattisgarh
61JDIJharradih  10:41-10:43-2m--2-101.863247mSECRRaigarh, Chhattisgarh
62KHSKharsia  10:48-10:50-2m--2-96.673259mSECRNational Highway 200, Chhattisgarh
63ROBRobertson  10:57-10:59-2m--2-88.168239mSECRRaigarh, Chhattisgarh
64BEFBhupdeopur  11:07-11:09-2m--2-79.179243mSECRRaigarh, Chhattisgarh
65KDTRKirodimalnagar (5)  11:16-11:18-2m--2-69.925240mSECRRaigarh, Chhattisgarh
66RIGRaigarh (3)  11:35-11:40-5m--2-62.797220mSECRRaigarh, Chhattisgarh
67KRLKotarlia  11:46-11:48-2m--2-52.973229mSECRRaigarh, Chhattisgarh
68JMGJamga  11:55-11:57-2m--2-44.465233mSECRJamga Station, Chhattisgarh
69DAODaghoraXO  12:08-12:10-2m--2-32.434269mSECRRaigarh, Chhattisgarh
70HGRHimgir  12:23-12:25-2m--2-25.081275mSECRNational Highway 200, Chhattisgarh
71BPHBelpahar  12:35-12:37-2m--2-11.625235mSECRBelpahar, Odisha
72BRJNBrajrajnagarO  12:58-13:00-2m--2-2.76212mSECRBrajrajnagar, Odisha
73IB»Ib»XO  13:28-13:30-2m--20.08207mSECRJharsuguda, Odisha
74JSGJharsuguda Junction (5)X  14:35-14:55-20m--29.057236mSERJharsuguda, Odisha
75DTVDhutraX  15:04-15:05-1m--217.647240mSERJharsuguda, Odisha
76PNPLPanpaliX  15:12-15:13-1m--223.056258mSERJharsuguda, Odisha
77BEHBagdihi (3)O  15:20-15:21-1m--229.654254mSERState Highway 24 PH: 06640-286227, Odisha
78DIHDharuadihi  15:28-15:29-1m--235.964258mSERSH 24, Odisha
79BMBBamra (3)X  15:38-15:39-1m--245.556259mSERBamra PH : 06642-229268, Odisha
80TGMTangarmundaX  15:48-15:49-1m--253.958264mSERSundargarh, Odisha
81GPHGarpos (3)O  15:57-15:58-1m--261.747278mSERSundargarh, Odisha
82SOGRSogra  16:04-16:05-1m--266.455293mSERState Highway 10, Odisha
83SXNSonakhan  16:12-16:13-1m--272.855249mSERSundargarh, Odisha
84GPRaj Gangpur (3)  16:21-16:22-1m--280.155237mSERRaj Ganpur, Odisha
85KXNKanshbahal  16:32-16:33-1m--289.453220mSERSundargarh, Odisha
86KLGKalunga  16:41-16:42-1m--296.450203mSERSundargarh, Odisha
87PPOPanposh (2)X  16:51-16:52-1m--2103.98190mSERRourkela, Odisha
88ROURourkela Junction (5)X  17:40-18:40-60m42109.930198mSERRourkela, Odisha
89BNDMBondamunda (2)  18:53-18:54-1m--2116.541213mSERRourkela, Odisha
90BZRBisra  19:05-19:06-1m--2124.058224mSERSundargarh, Odisha
91BULBhalulata  19:13-19:14-1m--2130.850239mSERRourkela, Jharkhand
92JRAJaraikelaX  19:23-19:24-1m--2138.368215mSERJaraikela Station, Jharkhand
93MOUManoharpurX  19:34-19:35-1m--2149.739228mSERManoharpur, Jharkhand
94PSTPosotia (4)X  19:52-19:53-1m--2160.751279mSERPosotia Station, Jharkhand
95DRWNDerowan P. HaltX  20:01-20:02-1m--2167.536275mSERDerowan, Jharkhand
96GOLGoilkera (2)  20:18-20:19-1m--2177.251333mSERGoilkera, Jharkhand
97TUXTunia  20:27-20:28-1m--2184.045297mSERTunia Station, Jharkhand
98SWRSonua  20:36-20:37-1m--2190.069287mSERSonua, Jharkhand
99LPHLotapahar  20:47-20:48-1m--2201.526251mSERLotapahar Station, Jharkhand
100CKPChakradharpur (3)X  21:10-21:50-40m--2211.064235mSERChakradharpur (West Singhbhum), Jharkhand
101BRMBarabamboX  22:00-22:01-1m--2221.656213mSERBarabambo Station, Jharkhand
102RKSNRajkharsawan Junction (3)  22:11-22:12-1m--2231.050189mSERSaraikela Kharswan District, Jharkhand
103MMVMahali Marup (2)  22:21-22:22-1m--2238.651183mSERMahali Marup Station, Jharkhand
104SINISini Junction (3)  22:31-22:32-1m22246.348182mSERNational Highway 33, Jharkhand
105BRBSBirbans  22:41-22:42-1m--2253.554171mSERBirbans, Jharkhand
106GMHGamharia (3)X  22:52-22:53-1m22262.640165mSERJamshedpur, Jharkhand
107ADTPAdityapur (3)  23:02-23:03-1m22268.65152mSERJamshedpur, Jharkhand
108TATA•Tatanagar Junction (5)•  00:05--43273.2-164mSER91-657-2423026, Jharkhand
Scroll to Top
Scroll to Bottom